Time;durP1;ratioP1;P1;durP2;ratioP2;P2;SDS_P1;SDS_P2;PMS_P1;PMS_P2;Temp;Humidity;BMP_temperature;BMP_pressure;BME280_temperature;BME280_humidity;BME280_pressure;Samples;Min_cycle;Max_cycle;Signal;HPM_P1;HPM_P2
2023/06/03 00:01:36;;;;;;;9.15;3.17;;;17.20;46.50;;;;;;4992961;28;20042;-92
2023/06/03 00:04:04;;;;;;;9.02;2.92;;;17.30;46.60;;;;;;5005472;28;20465;-92
2023/06/03 00:06:30;;;;;;;16.65;3.20;;;17.20;46.80;;;;;;5003449;28;20078;-92
2023/06/03 00:08:55;;;;;;;14.25;3.00;;;17.20;46.90;;;;;;4994298;28;20057;-92
2023/06/03 00:11:21;;;;;;;9.98;2.97;;;17.20;46.90;;;;;;4985339;28;20095;-92
2023/06/03 00:13:48;;;;;;;10.27;2.72;;;17.10;46.90;;;;;;4986480;28;20053;-93
2023/06/03 00:16:14;;;;;;;8.20;3.03;;;17.10;47.00;;;;;;5001637;28;20037;-91
2023/06/03 00:18:39;;;;;;;13.63;3.03;;;17.00;47.00;;;;;;4989591;28;20025;-92
2023/06/03 00:21:05;;;;;;;7.65;3.17;;;17.00;47.00;;;;;;4993602;28;20465;-91
2023/06/03 00:23:31;;;;;;;14.57;3.08;;;17.00;47.20;;;;;;4993065;28;20030;-92
2023/06/03 00:25:57;;;;;;;12.32;3.20;;;16.90;47.30;;;;;;4986451;28;20034;-92
2023/06/03 00:28:23;;;;;;;9.75;3.08;;;16.90;47.40;;;;;;4988003;28;20034;-92
2023/06/03 00:30:49;;;;;;;9.35;2.83;;;16.90;47.50;;;;;;4995910;28;20072;-92
2023/06/03 00:33:15;;;;;;;12.63;3.58;;;16.80;47.40;;;;;;4986808;28;20457;-91
2023/06/03 00:35:40;;;;;;;9.45;3.60;;;16.80;47.50;;;;;;4993325;28;20049;-92
2023/06/03 00:38:06;;;;;;;12.73;3.85;;;16.80;47.70;;;;;;5007474;28;20081;-92
2023/06/03 00:40:32;;;;;;;9.65;3.10;;;16.70;47.70;;;;;;4997498;28;20041;-91
2023/06/03 00:42:58;;;;;;;8.82;3.50;;;16.60;47.90;;;;;;4992438;28;20112;-91
2023/06/03 00:45:23;;;;;;;8.75;3.15;;;16.60;48.00;;;;;;4994830;28;20413;-92
2023/06/03 00:47:50;;;;;;;7.35;3.17;;;16.50;48.10;;;;;;4997602;28;20080;-93
2023/06/03 00:50:16;;;;;;;11.48;3.05;;;16.40;48.40;;;;;;4994247;28;20556;-92
2023/06/03 00:52:43;;;;;;;9.07;2.67;;;16.40;48.40;;;;;;4992569;28;20058;-92
2023/06/03 00:55:09;;;;;;;11.80;3.40;;;16.30;49.20;;;;;;4999499;28;20025;-92
2023/06/03 00:57:35;;;;;;;11.20;3.45;;;16.30;48.70;;;;;;4996967;28;20025;-93
2023/06/03 01:00:01;;;;;;;10.35;3.25;;;16.20;48.80;;;;;;4992377;28;20484;-93
2023/06/03 01:02:27;;;;;;;16.65;3.30;;;16.20;48.90;;;;;;4995663;28;20080;-92
2023/06/03 01:04:57;;;;;;;7.65;3.03;;;16.10;48.90;;;;;;4989562;28;20060;-92
2023/06/03 01:07:35;;;;;;;9.27;3.15;;;16.00;49.00;;;;;;4996079;28;20458;-91
2023/06/03 01:10:14;;;;;;;11.10;3.00;;;16.00;50.10;;;;;;4992948;28;20061;-91
2023/06/03 01:13:12;;;;;;;9.40;2.97;;;16.00;50.10;;;;;;4994667;28;20548;-92
2023/06/03 01:15:42;;;;;;;8.88;3.47;;;16.00;50.40;;;;;;4998422;28;20072;-92
2023/06/03 01:18:08;;;;;;;11.23;3.67;;;15.90;49.60;;;;;;4986788;28;20033;-92
2023/06/03 01:20:34;;;;;;;7.25;2.90;;;15.90;49.60;;;;;;4993957;28;20054;-93
2023/06/03 01:23:23;;;;;;;12.20;3.70;;;15.90;49.80;;;;;;4986215;28;20022;-92
2023/06/03 01:25:58;;;;;;;10.57;3.40;;;15.90;50.90;;;;;;4989177;28;20038;-92
2023/06/03 01:28:25;;;;;;;6.70;2.85;;;15.80;49.80;;;;;;4991730;28;20144;-92
2023/06/03 01:30:51;;;;;;;12.82;3.25;;;15.80;49.90;;;;;;4992759;28;20045;-92
2023/06/03 01:33:19;;;;;;;12.13;2.88;;;15.70;49.90;;;;;;4984473;28;20030;-93
2023/06/03 01:35:47;;;;;;;8.82;3.45;;;15.70;50.80;;;;;;4989979;28;20094;-91
2023/06/03 01:38:13;;;;;;;8.38;3.20;;;15.60;50.20;;;;;;4986146;28;20026;-91
2023/06/03 01:40:39;;;;;;;10.40;3.58;;;15.60;50.40;;;;;;4998507;28;20036;-91
2023/06/03 01:43:05;;;;;;;14.98;3.20;;;15.50;50.50;;;;;;4991431;28;20029;-92
2023/06/03 01:45:31;;;;;;;9.55;3.25;;;15.50;50.60;;;;;;4991302;28;20489;-91
2023/06/03 01:47:57;;;;;;;7.00;3.00;;;15.50;50.90;;;;;;4992649;28;20026;-91
2023/06/03 01:50:23;;;;;;;8.95;3.65;;;15.40;50.90;;;;;;4989906;28;20091;-92
2023/06/03 01:52:49;;;;;;;10.38;3.30;;;15.40;51.00;;;;;;4998938;28;20035;-92
2023/06/03 01:55:16;;;;;;;7.85;3.42;;;15.30;51.00;;;;;;4998586;28;20027;-92
2023/06/03 01:57:42;;;;;;;15.23;3.72;;;15.30;51.10;;;;;;4978048;28;20385;-92
2023/06/03 02:00:11;;;;;;;7.75;3.33;;;15.30;51.20;;;;;;4998426;28;20060;-92
2023/06/03 02:02:37;;;;;;;8.90;3.40;;;15.20;51.30;;;;;;4998955;28;20034;-93
2023/06/03 02:05:03;;;;;;;10.05;3.15;;;15.20;51.40;;;;;;4978550;28;20145;-92
2023/06/03 02:07:32;;;;;;;9.18;3.08;;;15.20;51.50;;;;;;4996452;28;20057;-92
2023/06/03 02:10:02;;;;;;;8.85;3.08;;;15.20;51.60;;;;;;4987288;28;20073;-92
2023/06/03 02:12:28;;;;;;;7.45;2.83;;;15.10;51.80;;;;;;4992750;28;20041;-92
2023/06/03 02:14:54;;;;;;;8.40;3.63;;;15.10;51.50;;;;;;4990938;28;20042;-92
2023/06/03 02:17:26;;;;;;;11.95;3.42;;;15.10;51.70;;;;;;4996194;28;20049;-92
2023/06/03 02:19:52;;;;;;;6.63;2.90;;;15.10;52.20;;;;;;4996672;28;20087;-94
2023/06/03 02:22:19;;;;;;;8.13;3.30;;;15.00;51.90;;;;;;4992517;28;20104;-92
2023/06/03 02:24:46;;;;;;;9.10;3.28;;;15.00;52.00;;;;;;5006265;28;20036;-92
2023/06/03 02:27:19;;;;;;;10.52;2.88;;;15.00;52.00;;;;;;4996743;28;20049;-93
2023/06/03 02:29:52;;;;;;;6.80;3.08;;;14.90;52.20;;;;;;4986830;28;20049;-93
2023/06/03 02:32:19;;;;;;;12.55;3.13;;;14.90;52.10;;;;;;4989508;28;20041;-92
2023/06/03 02:34:45;;;;;;;11.98;3.60;;;14.90;52.30;;;;;;5005663;28;20093;-92
2023/06/03 02:37:12;;;;;;;11.68;3.40;;;14.80;52.30;;;;;;5001353;28;20477;-92
2023/06/03 02:39:37;;;;;;;7.13;2.95;;;14.80;52.40;;;;;;5005346;28;20030;-93
2023/06/03 02:42:03;;;;;;;7.97;3.17;;;14.80;52.40;;;;;;5000336;28;20022;-92
2023/06/03 02:44:29;;;;;;;7.72;3.40;;;14.70;52.40;;;;;;5000725;28;20145;-92
2023/06/03 02:46:55;;;;;;;8.82;3.65;;;14.70;52.50;;;;;;5003891;28;20042;-90
2023/06/03 02:49:21;;;;;;;7.32;3.28;;;14.70;52.60;;;;;;4993124;28;20034;-92
2023/06/03 02:51:46;;;;;;;5.85;3.28;;;14.60;52.80;;;;;;5002763;28;20042;-92
2023/06/03 02:54:12;;;;;;;13.38;3.42;;;14.60;52.90;;;;;;5004750;28;20355;-92
2023/06/03 02:56:38;;;;;;;12.23;3.25;;;14.60;53.10;;;;;;5006317;28;20032;-93
2023/06/03 02:59:05;;;;;;;6.35;2.78;;;14.60;53.10;;;;;;4998815;28;20049;-92
2023/06/03 03:01:31;;;;;;;7.85;3.40;;;14.50;53.10;;;;;;5002196;28;20113;-91
2023/06/03 03:03:57;;;;;;;7.78;3.17;;;14.50;53.10;;;;;;4997174;28;20421;-92
2023/06/03 03:06:26;;;;;;;9.98;3.00;;;14.50;53.30;;;;;;5007576;28;20025;-91
2023/06/03 03:08:53;;;;;;;10.65;3.30;;;14.40;53.40;;;;;;5007296;28;20060;-93
2023/06/03 03:11:18;;;;;;;7.70;2.78;;;14.30;53.40;;;;;;4989562;28;20037;-92
2023/06/03 03:13:45;;;;;;;10.43;3.63;;;14.40;53.40;;;;;;4989355;28;20029;-92
2023/06/03 03:16:12;;;;;;;10.80;3.50;;;14.40;53.70;;;;;;5013539;28;20097;-92
2023/06/03 03:18:40;;;;;;;8.77;3.20;;;14.30;53.80;;;;;;4989001;28;20026;-92
2023/06/03 03:21:06;;;;;;;8.02;3.47;;;14.30;53.80;;;;;;5000442;28;20125;-92
2023/06/03 03:23:32;;;;;;;7.55;2.83;;;14.30;53.80;;;;;;4995425;28;20045;-91
2023/06/03 03:26:00;;;;;;;9.73;3.47;;;14.30;53.90;;;;;;4994859;28;20029;-91
2023/06/03 03:28:26;;;;;;;9.55;3.10;;;14.30;54.00;;;;;;5003082;28;20113;-92
2023/06/03 03:30:53;;;;;;;7.53;3.08;;;14.20;53.90;;;;;;4993593;28;20437;-92
2023/06/03 03:33:20;;;;;;;8.23;3.42;;;14.20;54.00;;;;;;4989001;28;20026;-92
2023/06/03 03:35:48;;;;;;;12.90;4.20;;;14.20;54.00;;;;;;5003636;28;20052;-91
2023/06/03 03:38:15;;;;;;;9.43;3.30;;;14.20;53.80;;;;;;4996888;28;20027;-92
2023/06/03 03:40:41;;;;;;;9.27;3.33;;;14.10;54.20;;;;;;4998541;28;20033;-91
2023/06/03 03:43:19;;;;;;;11.48;3.10;;;14.10;54.20;;;;;;4987672;28;20040;-91
2023/06/03 03:45:45;;;;;;;7.60;2.90;;;14.10;55.00;;;;;;4995308;28;20473;-92
2023/06/03 03:48:16;;;;;;;6.03;2.63;;;14.10;54.30;;;;;;4985195;28;20022;-93
2023/06/03 03:50:51;;;;;;;10.70;3.33;;;14.00;54.70;;;;;;4989573;28;20488;-92
2023/06/03 03:53:30;;;;;;;6.53;2.63;;;14.00;55.20;;;;;;4999302;28;20036;-91
2023/06/03 03:55:57;;;;;;;6.50;2.45;;;14.00;55.20;;;;;;4986809;28;20052;-92
2023/06/03 03:58:27;;;;;;;8.13;3.10;;;14.00;54.40;;;;;;4983060;28;20026;-92
2023/06/03 04:01:01;;;;;;;10.48;3.50;;;14.00;54.90;;;;;;4987612;28;20030;-93
2023/06/03 04:03:29;;;;;;;8.90;3.00;;;14.00;55.00;;;;;;4989210;28;20040;-92
2023/06/03 04:05:56;;;;;;;7.72;3.13;;;14.00;55.00;;;;;;4991498;28;20053;-92
2023/06/03 04:08:43;;;;;;;8.15;3.15;;;14.00;54.90;;;;;;4995482;28;20028;-92
2023/06/03 04:11:19;;;;;;;9.25;3.03;;;14.10;56.10;;;;;;4997316;28;20034;-91
2023/06/03 04:13:45;;;;;;;6.72;3.13;;;14.10;55.60;;;;;;4994192;28;20037;-92
2023/06/03 04:16:22;;;;;;;7.75;2.80;;;14.10;55.10;;;;;;4993844;28;20386;-92
2023/06/03 04:18:48;;;;;;;5.65;3.10;;;14.20;55.30;;;;;;4987275;28;20054;-91
2023/06/03 04:21:19;;;;;;;8.20;3.20;;;14.20;55.10;;;;;;5006935;28;20025;-91
2023/06/03 04:23:46;;;;;;;10.20;2.78;;;14.20;55.50;;;;;;4983994;28;20026;-91
2023/06/03 04:26:15;;;;;;;9.05;3.08;;;14.30;55.40;;;;;;4988751;28;20030;-92
2023/06/03 04:28:41;;;;;;;7.93;3.25;;;14.40;55.50;;;;;;4985078;28;20054;-92
2023/06/03 04:31:07;;;;;;;10.52;3.50;;;14.40;55.20;;;;;;4991080;28;20061;-92
2023/06/03 04:33:33;;;;;;;7.85;3.10;;;14.50;55.30;;;;;;5009058;28;20041;-92
2023/06/03 04:35:59;;;;;;;7.35;3.30;;;14.60;55.40;;;;;;4992230;28;20050;-92
2023/06/03 04:38:25;;;;;;;6.38;3.03;;;14.70;55.40;;;;;;4986247;28;20504;-91
2023/06/03 04:40:51;;;;;;;9.77;3.08;;;14.70;55.40;;;;;;4991416;28;20040;-91
2023/06/03 04:43:18;;;;;;;9.82;3.40;;;14.80;55.40;;;;;;4989635;28;20018;-91
2023/06/03 04:45:45;;;;;;;8.65;3.30;;;14.90;55.40;;;;;;4986328;28;20035;-92
2023/06/03 04:48:13;;;;;;;8.20;3.25;;;15.00;55.50;;;;;;4988462;28;20048;-92
2023/06/03 04:50:43;;;;;;;8.07;3.10;;;15.10;55.60;;;;;;4995975;28;20469;-92
2023/06/03 04:53:12;;;;;;;6.93;3.38;;;15.20;55.30;;;;;;4989379;28;20041;-92
2023/06/03 04:55:43;;;;;;;12.68;3.42;;;15.30;55.50;;;;;;4989932;28;20033;-91
2023/06/03 04:58:12;;;;;;;9.20;3.25;;;15.40;55.60;;;;;;4986376;28;20178;-91
2023/06/03 05:00:40;;;;;;;10.52;3.65;;;15.50;55.40;;;;;;4987684;28;20031;-92
2023/06/03 05:03:10;;;;;;;8.20;3.17;;;15.60;55.10;;;;;;4988696;28;20540;-91
2023/06/03 05:05:41;;;;;;;10.50;3.40;;;15.80;55.30;;;;;;4998622;28;20102;-92
2023/06/03 05:08:09;;;;;;;16.30;3.72;;;15.90;55.60;;;;;;4994541;28;20054;-91
2023/06/03 05:10:35;;;;;;;16.40;3.70;;;16.00;55.20;;;;;;4995946;28;20037;-91
2023/06/03 05:13:02;;;;;;;14.82;3.75;;;16.10;54.90;;;;;;4987755;28;20050;-93
2023/06/03 05:15:28;;;;;;;7.13;3.47;;;16.20;55.00;;;;;;4991181;28;20516;-92
2023/06/03 05:17:54;;;;;;;7.75;2.72;;;16.30;54.70;;;;;;4997397;28;20345;-92
2023/06/03 05:20:19;;;;;;;9.77;3.85;;;16.50;54.60;;;;;;4996175;28;20026;-92
2023/06/03 05:22:45;;;;;;;10.52;3.08;;;16.70;54.60;;;;;;4989389;28;20150;-93
2023/06/03 05:25:12;;;;;;;8.38;3.00;;;16.90;54.20;;;;;;4997008;28;20060;-91
2023/06/03 05:27:38;;;;;;;8.52;3.33;;;17.00;53.70;;;;;;4991631;28;20117;-92
2023/06/03 05:30:04;;;;;;;10.10;3.58;;;17.20;53.10;;;;;;4986200;28;20556;-91
2023/06/03 05:32:30;;;;;;;9.65;3.17;;;17.30;52.90;;;;;;4997006;28;20070;-92
2023/06/03 05:34:55;;;;;;;13.68;3.10;;;17.50;52.60;;;;;;4991690;28;20065;-92
2023/06/03 05:37:21;;;;;;;10.55;3.08;;;17.60;52.30;;;;;;4994919;28;20541;-91
2023/06/03 05:39:47;;;;;;;5.47;2.92;;;17.70;52.10;;;;;;4987161;28;20025;-92
2023/06/03 05:42:13;;;;;;;5.80;2.65;;;17.80;52.00;;;;;;4991709;28;20026;-91
2023/06/03 05:44:38;;;;;;;10.80;3.30;;;17.90;51.80;;;;;;4984883;28;20457;-91
2023/06/03 05:47:04;;;;;;;9.13;2.95;;;18.00;51.50;;;;;;5003541;28;20026;-92
2023/06/03 05:49:30;;;;;;;6.82;2.67;;;18.10;51.20;;;;;;5000707;28;20041;-92
2023/06/03 05:51:56;;;;;;;13.27;3.40;;;18.30;51.10;;;;;;4989829;28;20046;-92
2023/06/03 05:54:21;;;;;;;6.43;2.78;;;18.30;50.90;;;;;;4999458;28;20029;-91
2023/06/03 05:56:47;;;;;;;6.53;3.03;;;18.40;50.50;;;;;;4998577;28;20048;-92
2023/06/03 05:59:13;;;;;;;10.27;3.40;;;18.50;50.70;;;;;;4991426;28;20036;-92
2023/06/03 06:01:39;;;;;;;10.75;2.60;;;18.60;50.40;;;;;;4998893;28;20038;-92
2023/06/03 06:04:04;;;;;;;6.97;2.85;;;18.70;50.20;;;;;;4993137;28;20046;-92
2023/06/03 06:06:30;;;;;;;11.32;3.15;;;18.80;50.20;;;;;;4995767;28;20026;-92
2023/06/03 06:08:56;;;;;;;7.18;2.60;;;18.90;50.10;;;;;;4986010;28;20142;-92
2023/06/03 06:11:22;;;;;;;7.65;3.20;;;19.10;50.10;;;;;;4997520;28;20040;-92
2023/06/03 06:13:48;;;;;;;13.23;2.95;;;19.20;49.80;;;;;;5001679;28;20127;-92
2023/06/03 06:16:14;;;;;;;11.10;3.78;;;19.30;49.30;;;;;;4989635;28;20041;-91
2023/06/03 06:18:40;;;;;;;7.60;3.15;;;19.40;49.10;;;;;;4996354;28;20022;-92
2023/06/03 06:21:06;;;;;;;7.72;3.17;;;19.50;48.90;;;;;;4995555;28;20034;-92
2023/06/03 06:23:31;;;;;;;5.35;2.70;;;19.60;48.40;;;;;;5004441;28;20079;-92
2023/06/03 06:25:57;;;;;;;9.88;2.70;;;19.60;48.50;;;;;;5002320;28;20025;-91
2023/06/03 06:28:28;;;;;;;7.50;2.97;;;19.70;48.60;;;;;;4998791;28;20608;-92
2023/06/03 06:30:55;;;;;;;9.55;3.08;;;19.80;48.60;;;;;;4994021;28;20034;-92
2023/06/03 06:33:21;;;;;;;6.95;3.25;;;19.90;48.50;;;;;;5011598;28;20029;-93
2023/06/03 06:35:47;;;;;;;6.93;2.90;;;19.90;48.10;;;;;;4985003;28;20057;-92
2023/06/03 06:38:13;;;;;;;9.27;3.30;;;20.00;48.10;;;;;;4986605;28;20056;-91
2023/06/03 06:40:40;;;;;;;11.35;3.05;;;20.00;48.00;;;;;;4992483;28;20038;-92
2023/06/03 06:43:12;;;;;;;13.13;3.53;;;20.10;48.00;;;;;;4996364;28;20030;-92
2023/06/03 06:45:37;;;;;;;7.07;3.30;;;20.30;48.20;;;;;;5003136;28;20445;-92
2023/06/03 06:48:05;;;;;;;11.90;3.72;;;20.30;47.80;;;;;;4989872;28;20121;-91
2023/06/03 06:50:48;;;;;;;10.07;3.60;;;20.30;47.80;;;;;;4990121;28;20035;-92
2023/06/03 06:53:16;;;;;;;10.82;3.63;;;20.40;47.20;;;;;;4996796;28;20394;-92
2023/06/03 06:55:47;;;;;;;8.60;3.20;;;20.50;47.20;;;;;;4983747;28;20107;-91
2023/06/03 06:58:13;;;;;;;9.82;3.08;;;20.50;47.40;;;;;;4992366;28;20026;-90
2023/06/03 07:00:39;;;;;;;9.40;2.70;;;20.60;47.10;;;;;;5000859;28;20060;-92
2023/06/03 07:03:09;;;;;;;5.10;2.78;;;20.70;47.40;;;;;;4984350;28;20033;-91
2023/06/03 07:05:35;;;;;;;9.77;3.45;;;20.70;47.40;;;;;;4992906;28;20109;-92
2023/06/03 07:08:01;;;;;;;9.07;3.17;;;20.80;47.20;;;;;;5014843;28;20100;-91
2023/06/03 07:10:28;;;;;;;9.13;4.07;;;20.90;47.00;;;;;;4991587;28;20031;-91
2023/06/03 07:12:55;;;;;;;12.32;3.53;;;20.90;46.90;;;;;;4984598;28;20556;-91
2023/06/03 07:15:22;;;;;;;12.10;3.60;;;21.00;46.90;;;;;;4981863;28;20117;-91
2023/06/03 07:17:56;;;;;;;8.50;3.00;;;21.00;47.10;;;;;;4994301;28;20026;-91
2023/06/03 07:20:45;;;;;;;7.20;3.10;;;21.10;47.10;;;;;;4988837;28;20022;-91
2023/06/03 07:23:13;;;;;;;11.13;3.75;;;21.20;47.00;;;;;;4991077;28;20033;-91
2023/06/03 07:25:44;;;;;;;10.85;3.28;;;21.40;47.00;;;;;;4994558;28;20061;-91
2023/06/03 07:28:11;;;;;;;6.05;3.38;;;21.50;46.50;;;;;;4987313;28;20022;-91
2023/06/03 07:30:38;;;;;;;13.90;3.90;;;21.50;46.40;;;;;;4990755;28;20034;-91
2023/06/03 07:33:06;;;;;;;10.18;3.78;;;21.60;46.30;;;;;;4993409;28;20033;-90
2023/06/03 07:35:36;;;;;;;12.52;3.28;;;21.70;46.10;;;;;;4988476;28;20143;-92
2023/06/03 07:38:04;;;;;;;6.90;3.30;;;21.70;46.00;;;;;;4985605;28;20121;-91
2023/06/03 07:40:41;;;;;;;7.07;3.38;;;21.80;46.10;;;;;;4993109;28;20030;-92
2023/06/03 07:43:08;;;;;;;11.85;3.60;;;21.90;46.10;;;;;;4992618;28;20026;-91
2023/06/03 07:45:34;;;;;;;7.10;2.97;;;21.90;45.80;;;;;;4993796;28;20044;-90
2023/06/03 07:48:02;;;;;;;5.40;3.10;;;22.00;45.70;;;;;;4986873;28;20141;-91
2023/06/03 07:50:29;;;;;;;8.98;3.67;;;22.10;45.80;;;;;;4986977;28;20462;-92
2023/06/03 07:53:03;;;;;;;9.05;3.20;;;22.20;45.70;;;;;;4987427;28;20042;-96
2023/06/03 07:55:43;;;;;;;8.13;3.13;;;22.30;45.50;;;;;;4992144;28;20033;-90
2023/06/03 07:58:11;;;;;;;5.10;2.95;;;22.40;45.30;;;;;;4990880;28;20154;-90
2023/06/03 08:00:49;;;;;;;9.10;3.42;;;22.50;45.50;;;;;;4998540;28;20030;-90
2023/06/03 08:03:19;;;;;;;7.93;3.60;;;22.50;45.00;;;;;;4988989;28;20026;-91
2023/06/03 08:05:49;;;;;;;10.50;3.20;;;22.60;45.40;;;;;;4985498;28;20029;-90
2023/06/03 08:08:17;;;;;;;10.70;3.90;;;22.70;45.30;;;;;;5008889;28;20025;-90
2023/06/03 08:10:46;;;;;;;8.27;3.25;;;22.80;45.50;;;;;;4996782;28;20056;-90
2023/06/03 08:13:13;;;;;;;9.30;3.60;;;22.90;45.10;;;;;;4987650;28;20034;-90
2023/06/03 08:15:40;;;;;;;9.98;3.72;;;22.90;45.10;;;;;;4989317;28;20363;-91
2023/06/03 08:18:07;;;;;;;5.78;3.10;;;23.00;44.90;;;;;;4990072;28;20034;-91
2023/06/03 08:20:34;;;;;;;8.18;3.70;;;23.10;44.80;;;;;;4998233;28;20145;-91
2023/06/03 08:23:00;;;;;;;9.13;3.35;;;23.10;44.90;;;;;;5002475;28;20040;-91
2023/06/03 08:25:26;;;;;;;10.07;3.72;;;23.20;44.80;;;;;;4992610;28;20030;-90
2023/06/03 08:27:52;;;;;;;9.20;3.53;;;23.30;44.70;;;;;;4991059;28;20034;-91
2023/06/03 08:30:22;;;;;;;5.80;3.50;;;23.40;44.60;;;;;;5004059;28;20044;-90
2023/06/03 08:32:49;;;;;;;6.60;3.15;;;23.50;44.90;;;;;;4987346;28;20084;-89
2023/06/03 08:35:21;;;;;;;6.80;3.65;;;23.60;44.80;;;;;;5000080;28;20046;-90
2023/06/03 08:37:47;;;;;;;12.48;3.58;;;23.60;44.80;;;;;;4986783;28;20026;-90
2023/06/03 08:40:15;;;;;;;7.85;3.55;;;23.70;44.10;;;;;;5001652;28;20030;-90
2023/06/03 08:42:46;;;;;;;8.85;4.30;;;23.80;44.20;;;;;;4987459;28;20034;-91
2023/06/03 08:45:22;;;;;;;8.63;3.60;;;23.80;44.60;;;;;;5014407;28;20117;-91
2023/06/03 08:48:05;;;;;;;10.25;3.60;;;23.90;43.80;;;;;;4997077;28;20030;-90
2023/06/03 08:50:33;;;;;;;11.23;3.95;;;24.00;44.20;;;;;;4989434;28;20030;-90
2023/06/03 08:53:03;;;;;;;7.70;3.63;;;24.00;44.00;;;;;;4995685;28;20125;-90
2023/06/03 08:55:30;;;;;;;7.78;4.00;;;24.10;43.60;;;;;;5001221;28;20040;-90
2023/06/03 08:58:26;;;;;;;9.00;3.83;;;24.20;44.10;;;;;;4986535;28;20041;-91
2023/06/03 09:00:57;;;;;;;7.47;3.50;;;24.20;44.00;;;;;;4984657;28;20110;-90
2023/06/03 09:03:25;;;;;;;12.02;3.63;;;24.40;44.00;;;;;;4994529;28;20030;-90
2023/06/03 09:05:52;;;;;;;5.80;3.47;;;24.50;43.60;;;;;;4995109;28;20134;-89
2023/06/03 09:08:19;;;;;;;10.32;4.18;;;24.50;43.60;;;;;;4994223;28;20030;-90
2023/06/03 09:10:46;;;;;;;6.35;3.53;;;24.60;43.70;;;;;;4988290;28;20057;-90
2023/06/03 09:13:15;;;;;;;8.32;3.67;;;24.70;43.40;;;;;;4991116;28;20038;-90
2023/06/03 09:15:43;;;;;;;19.60;4.57;;;24.70;43.60;;;;;;4999315;28;20382;-89
2023/06/03 09:18:13;;;;;;;6.10;3.65;;;24.80;43.50;;;;;;5000269;28;20038;-90
2023/06/03 09:20:38;;;;;;;11.38;3.85;;;24.90;43.20;;;;;;4986208;28;20030;-90
2023/06/03 09:23:07;;;;;;;9.73;3.50;;;24.90;42.40;;;;;;4988015;28;20099;-90
2023/06/03 09:25:32;;;;;;;7.68;3.50;;;25.00;42.30;;;;;;4988379;28;20038;-90
2023/06/03 09:27:58;;;;;;;11.05;3.70;;;25.00;42.30;;;;;;4990104;28;20382;-91
2023/06/03 09:30:24;;;;;;;8.23;4.00;;;25.00;42.40;;;;;;4993295;28;20033;-90
2023/06/03 09:32:50;;;;;;;13.93;3.55;;;25.10;42.60;;;;;;5016802;28;20030;-90
2023/06/03 09:35:15;;;;;;;6.82;3.53;;;25.20;42.70;;;;;;4994590;28;20489;-90
2023/06/03 09:38:04;;;;;;;11.20;3.78;;;25.20;42.20;;;;;;4986446;28;20162;-90
2023/06/03 09:40:32;;;;;;;9.80;3.65;;;25.30;42.30;;;;;;4984026;28;20026;-90
2023/06/03 09:42:58;;;;;;;8.55;3.67;;;25.40;42.00;;;;;;4993886;28;20046;-90
2023/06/03 09:45:31;;;;;;;13.30;3.88;;;25.50;42.00;;;;;;4998666;28;20065;-90
2023/06/03 09:47:58;;;;;;;7.03;3.67;;;25.60;42.20;;;;;;4994530;28;20038;-90
2023/06/03 09:50:26;;;;;;;7.28;3.67;;;25.60;42.10;;;;;;4983934;28;20080;-90
2023/06/03 09:52:52;;;;;;;7.97;3.60;;;25.70;42.10;;;;;;5008663;28;20109;-90
2023/06/03 09:55:18;;;;;;;23.70;4.90;;;25.80;42.20;;;;;;4998136;28;20068;-90
2023/06/03 09:58:04;;;;;;;7.60;4.03;;;25.90;42.20;;;;;;4985194;28;20033;-91
2023/06/03 10:00:32;;;;;;;15.90;4.00;;;26.00;40.90;;;;;;5012381;28;20550;-90
2023/06/03 10:03:07;;;;;;;6.05;3.28;;;26.10;41.70;;;;;;4991776;28;20026;-89
2023/06/03 10:05:33;;;;;;;7.57;3.72;;;26.10;41.80;;;;;;4982297;28;20042;-91
2023/06/03 10:08:01;;;;;;;9.07;3.88;;;26.20;41.60;;;;;;5000525;28;20030;-90
2023/06/03 10:10:27;;;;;;;13.77;4.10;;;26.30;40.90;;;;;;4991859;28;20030;-90
2023/06/03 10:12:53;;;;;;;7.05;3.22;;;26.40;41.20;;;;;;4988793;28;20038;-90
2023/06/03 10:15:39;;;;;;;8.38;3.60;;;26.40;41.30;;;;;;4997195;28;20060;-88
2023/06/03 10:18:06;;;;;;;12.57;3.38;;;26.50;40.60;;;;;;4989960;28;20038;-89
2023/06/03 10:20:40;;;;;;;7.07;3.53;;;26.50;40.80;;;;;;4993519;28;20049;-90
2023/06/03 10:23:09;;;;;;;8.55;3.90;;;26.60;40.90;;;;;;5010446;28;20035;-89
2023/06/03 10:25:45;;;;;;;10.02;3.65;;;26.70;41.00;;;;;;4990642;28;20041;-89
2023/06/03 10:28:12;;;;;;;14.10;3.50;;;26.80;40.40;;;;;;4986885;28;20121;-90
2023/06/03 10:30:39;;;;;;;6.43;3.13;;;26.90;40.80;;;;;;4983247;28;20034;-91
2023/06/03 10:33:08;;;;;;;12.02;4.15;;;27.00;40.10;;;;;;5002707;28;20037;-91
2023/06/03 10:35:40;;;;;;;9.18;3.78;;;27.10;40.60;;;;;;5010723;28;20174;-91
2023/06/03 10:38:07;;;;;;;10.77;3.42;;;27.20;40.40;;;;;;4987531;28;20052;-91
2023/06/03 10:40:34;;;;;;;9.30;3.42;;;27.30;40.00;;;;;;4994680;28;20065;-91
2023/06/03 10:43:00;;;;;;;11.60;3.58;;;27.40;39.00;;;;;;5000866;28;20026;-91
2023/06/03 10:45:27;;;;;;;9.18;3.85;;;27.50;39.20;;;;;;4984320;28;20034;-90
2023/06/03 10:48:04;;;;;;;6.20;3.13;;;27.50;39.30;;;;;;4994500;28;20079;-90
2023/06/03 10:50:56;;;;;;;6.35;3.00;;;27.60;38.80;;;;;;4987703;28;20198;-89
2023/06/03 10:53:30;;;;;;;5.47;3.45;;;27.60;39.00;;;;;;4989144;28;20069;-90
2023/06/03 10:56:22;;;;;;;8.88;3.63;;;27.70;39.10;;;;;;4987278;28;20034;-91
2023/06/03 10:59:02;;;;;;;5.57;3.65;;;27.70;38.50;;;;;;4980016;28;20042;-93
2023/06/03 11:02:02;;;;;;;6.97;3.38;;;27.80;38.50;;;;;;4990811;28;20099;-92
2023/06/03 11:04:35;;;;;;;6.65;3.50;;;27.80;38.20;;;;;;4999507;28;20461;-91
2023/06/03 11:07:02;;;;;;;7.43;3.42;;;27.90;38.60;;;;;;4999368;28;20492;-91
2023/06/03 11:09:37;;;;;;;5.80;3.22;;;28.00;38.20;;;;;;4993356;28;20030;-92
2023/06/03 11:12:09;;;;;;;8.70;3.40;;;27.90;37.20;;;;;;4998010;28;20154;-91
2023/06/03 11:14:40;;;;;;;8.27;3.58;;;27.90;37.50;;;;;;5001412;28;20031;-92
2023/06/03 11:17:06;;;;;;;8.70;3.88;;;27.80;36.60;;;;;;4989851;28;20061;-92
2023/06/03 11:19:44;;;;;;;10.50;3.65;;;27.70;36.90;;;;;;5000195;28;20113;-91
2023/06/03 11:22:12;;;;;;;7.75;3.60;;;27.60;35.80;;;;;;5002801;28;20087;-92
2023/06/03 11:24:37;;;;;;;6.40;3.58;;;27.40;36.40;;;;;;4997883;28;20492;-92
2023/06/03 11:27:09;;;;;;;6.55;3.78;;;27.30;36.50;;;;;;4998925;28;20030;-91
2023/06/03 11:29:48;;;;;;;6.20;3.20;;;27.20;37.50;;;;;;4992411;28;20462;-92
2023/06/03 11:32:25;;;;;;;9.57;3.80;;;27.10;37.30;;;;;;4990944;28;20195;-91
2023/06/03 11:35:03;;;;;;;8.45;3.22;;;27.20;38.50;;;;;;5002889;28;20050;-92
2023/06/03 11:37:41;;;;;;;7.43;3.67;;;27.30;38.70;;;;;;5002540;28;20027;-93
2023/06/03 11:40:16;;;;;;;6.43;3.65;;;27.40;38.50;;;;;;4989668;28;20022;-91
2023/06/03 11:42:51;;;;;;;7.93;3.17;;;27.60;37.90;;;;;;4994397;28;20038;-92
2023/06/03 11:45:20;;;;;;;5.85;3.15;;;27.70;36.10;;;;;;4990450;28;20030;-91
2023/06/03 11:47:56;;;;;;;5.25;3.10;;;27.80;35.90;;;;;;4986832;28;20038;-91
2023/06/03 11:50:24;;;;;;;6.30;3.65;;;27.80;35.80;;;;;;4987047;28;20032;-92
2023/06/03 11:52:51;;;;;;;5.50;3.10;;;27.80;37.20;;;;;;4991089;28;20061;-92
2023/06/03 11:55:34;;;;;;;6.05;3.30;;;27.90;37.30;;;;;;4996845;28;20074;-93
2023/06/03 11:58:13;;;;;;;5.75;3.38;;;28.10;37.10;;;;;;4982473;28;20027;-93
2023/06/03 12:00:39;;;;;;;4.95;3.13;;;28.30;36.00;;;;;;4986694;28;20030;-91
2023/06/03 12:03:06;;;;;;;6.85;3.20;;;28.50;36.70;;;;;;4990684;28;20526;-91
2023/06/03 12:05:31;;;;;;;9.60;3.67;;;28.60;36.10;;;;;;4998813;28;20027;-92
2023/06/03 12:08:00;;;;;;;5.18;3.20;;;28.80;36.00;;;;;;5000510;28;20034;-91
2023/06/03 12:10:29;;;;;;;4.43;3.10;;;29.00;34.20;;;;;;4997738;28;20132;-92
2023/06/03 12:12:57;;;;;;;5.90;3.58;;;29.20;35.00;;;;;;5002677;28;20072;-92
2023/06/03 12:15:25;;;;;;;8.45;3.38;;;29.30;35.40;;;;;;5004808;28;20030;-91
2023/06/03 12:17:51;;;;;;;8.18;3.20;;;29.50;35.00;;;;;;5002263;28;20156;-92
2023/06/03 12:20:28;;;;;;;5.10;3.25;;;29.60;34.50;;;;;;4999085;28;20045;-91
2023/06/03 12:23:04;;;;;;;5.43;3.40;;;29.80;33.90;;;;;;4989343;28;20463;-91
2023/06/03 12:25:32;;;;;;;5.25;2.83;;;30.00;33.00;;;;;;4985497;28;20034;-91
2023/06/03 12:27:59;;;;;;;4.53;2.80;;;30.10;33.90;;;;;;4989072;28;20041;-92
2023/06/03 12:30:31;;;;;;;6.90;3.50;;;30.20;33.60;;;;;;4994413;28;20022;-91
2023/06/03 12:32:58;;;;;;;7.00;3.40;;;30.30;32.90;;;;;;4997138;28;20128;-91
2023/06/03 12:35:28;;;;;;;4.60;2.78;;;30.40;32.90;;;;;;4993078;28;20055;-92
2023/06/03 12:38:08;;;;;;;7.55;2.78;;;30.30;32.00;;;;;;4987926;28;20030;-90
2023/06/03 12:40:35;;;;;;;10.02;3.28;;;30.10;31.90;;;;;;5005432;28;20063;-92
2023/06/03 12:43:04;;;;;;;6.03;3.38;;;30.00;32.60;;;;;;4994510;28;20034;-90
2023/06/03 12:45:30;;;;;;;10.38;3.42;;;29.90;32.60;;;;;;4992658;28;20053;-90
2023/06/03 12:47:56;;;;;;;5.50;3.15;;;29.90;32.50;;;;;;5001526;28;20038;-90
2023/06/03 12:50:30;;;;;;;6.18;3.20;;;29.70;32.00;;;;;;5000724;28;20026;-91
2023/06/03 12:52:55;;;;;;;8.82;3.42;;;29.60;32.50;;;;;;4991255;28;20131;-91